createdAt,value
2023-03-05T00:02:07.702Z,28.74
2023-03-05T00:04:34.878Z,27.06
2023-03-05T00:07:02.239Z,26.48
2023-03-05T00:09:29.477Z,27.26
2023-03-05T00:11:56.756Z,25.86
2023-03-05T00:14:25.417Z,27.10
2023-03-05T00:16:52.575Z,25.51
2023-03-05T00:19:19.714Z,24.98
2023-03-05T00:21:46.954Z,25.00
2023-03-05T00:24:16.446Z,23.69
2023-03-05T00:26:44.804Z,25.38
2023-03-05T00:29:15.942Z,25.40
2023-03-05T00:31:45.197Z,25.65
2023-03-05T00:34:15.497Z,26.05
2023-03-05T00:36:44.832Z,25.83
2023-03-05T00:39:13.261Z,24.85
2023-03-05T00:41:40.689Z,24.84
2023-03-05T00:44:08.019Z,25.11
2023-03-05T00:46:36.209Z,26.12
2023-03-05T00:49:05.123Z,27.57
2023-03-05T00:51:32.359Z,26.80
2023-03-05T00:53:59.638Z,24.00
2023-03-05T00:56:26.821Z,25.02
2023-03-05T00:58:54.119Z,25.72
2023-03-05T01:01:21.342Z,25.85
2023-03-05T01:03:48.987Z,25.96
2023-03-05T01:06:17.955Z,26.86
2023-03-05T01:08:45.779Z,25.61
2023-03-05T01:11:13.590Z,26.58
2023-03-05T01:13:40.865Z,25.34
2023-03-05T01:16:08.777Z,28.13
2023-03-05T01:18:38.058Z,28.21
2023-03-05T01:21:05.991Z,27.50
2023-03-05T01:23:34.607Z,25.25
2023-03-05T01:26:01.830Z,25.75
2023-03-05T01:28:29.152Z,25.52
2023-03-05T01:30:56.846Z,25.21
2023-03-05T01:33:24.069Z,25.79
2023-03-05T01:35:51.508Z,25.08
2023-03-05T01:38:18.751Z,24.63
2023-03-05T01:40:47.481Z,25.15
2023-03-05T01:43:24.552Z,24.90
2023-03-05T01:46:37.267Z,25.08
2023-03-05T01:49:15.968Z,25.82
2023-03-05T01:51:51.927Z,24.94
2023-03-05T01:54:25.048Z,26.36
2023-03-05T01:56:59.623Z,26.02
2023-03-05T01:59:27.983Z,26.62
2023-03-05T02:01:57.884Z,25.99
2023-03-05T02:04:34.281Z,26.55
2023-03-05T02:07:02.460Z,25.88
2023-03-05T02:09:29.640Z,25.90
2023-03-05T02:11:58.866Z,26.14
2023-03-05T02:14:27.183Z,26.54
2023-03-05T02:16:54.378Z,26.70
2023-03-05T02:19:21.665Z,26.08
2023-03-05T02:21:50.667Z,26.77
2023-03-05T02:24:33.687Z,25.40
2023-03-05T02:27:02.066Z,25.67
2023-03-05T02:29:31.844Z,25.39
2023-03-05T02:31:59.231Z,25.99
2023-03-05T02:34:26.581Z,25.83
2023-03-05T02:36:55.077Z,26.49
2023-03-05T02:39:22.398Z,25.39
2023-03-05T02:41:49.620Z,26.29
2023-03-05T02:44:16.717Z,26.15
2023-03-05T02:46:43.898Z,26.28
2023-03-05T02:49:11.062Z,26.31
2023-03-05T02:51:38.241Z,26.22
2023-03-05T02:54:07.307Z,26.31
2023-03-05T02:56:34.623Z,26.09
2023-03-05T02:59:01.810Z,26.77
2023-03-05T03:01:29.053Z,26.51
2023-03-05T03:03:56.629Z,27.61
2023-03-05T03:06:23.795Z,27.59
2023-03-05T03:08:50.929Z,27.48
2023-03-05T03:11:19.728Z,28.02
2023-03-05T03:13:46.891Z,28.56
2023-03-05T03:16:15.833Z,29.79
2023-03-05T03:18:43.275Z,29.45
2023-03-05T03:21:17.849Z,30.20
2023-03-05T03:23:45.072Z,31.31
2023-03-05T03:26:12.249Z,30.73
2023-03-05T03:28:40.871Z,32.55
2023-03-05T03:31:08.145Z,31.92
2023-03-05T03:33:35.376Z,32.99
2023-03-05T03:36:04.094Z,33.16
2023-03-05T03:38:31.336Z,33.42
2023-03-05T03:40:58.474Z,33.64
2023-03-05T03:43:25.638Z,34.55
2023-03-05T03:45:54.173Z,34.19
2023-03-05T03:48:21.358Z,34.01
2023-03-05T03:50:48.518Z,34.83
2023-03-05T03:53:15.657Z,34.82
2023-03-05T03:55:43.425Z,35.43
2023-03-05T03:58:11.098Z,35.08
2023-03-05T04:00:39.586Z,35.57
2023-03-05T04:03:08.357Z,35.21
2023-03-05T04:05:35.560Z,35.60
2023-03-05T04:08:02.960Z,36.50
2023-03-05T04:10:30.163Z,36.33
2023-03-05T04:12:57.306Z,35.55
2023-03-05T04:15:24.498Z,35.73
2023-03-05T04:17:51.598Z,35.60
2023-03-05T04:20:20.419Z,36.17
2023-03-05T04:22:48.177Z,36.46
2023-03-05T04:25:15.457Z,36.98
2023-03-05T04:27:42.678Z,37.82
2023-03-05T04:30:13.674Z,36.65
2023-03-05T04:32:41.243Z,36.32
2023-03-05T04:35:09.392Z,35.50
2023-03-05T04:37:38.509Z,36.25
2023-03-05T04:40:07.314Z,35.77
2023-03-05T04:42:34.533Z,35.67
2023-03-05T04:45:01.772Z,36.10
2023-03-05T04:47:28.870Z,38.60
2023-03-05T04:49:56.014Z,38.15
2023-03-05T04:52:23.227Z,38.39
2023-03-05T04:54:51.747Z,39.45
2023-03-05T04:57:18.931Z,38.69
2023-03-05T04:59:46.007Z,40.00
2023-03-05T05:02:13.170Z,38.66
2023-03-05T05:04:40.369Z,38.57
2023-03-05T05:07:07.602Z,40.01
2023-03-05T05:09:35.174Z,39.26
2023-03-05T05:12:04.418Z,39.64
2023-03-05T05:14:31.510Z,38.96
2023-03-05T05:16:58.790Z,38.84
2023-03-05T05:19:25.960Z,39.50
2023-03-05T05:21:53.187Z,39.65
2023-03-05T05:24:20.269Z,39.43
2023-03-05T05:26:47.435Z,37.73
2023-03-05T05:29:16.052Z,39.03
2023-03-05T05:31:43.218Z,38.26
2023-03-05T05:34:10.475Z,38.90
2023-03-05T05:36:37.620Z,39.15
2023-03-05T05:39:05.682Z,38.18
2023-03-05T05:41:32.929Z,39.18
2023-03-05T05:44:00.145Z,38.49
2023-03-05T05:46:28.719Z,38.82
2023-03-05T05:48:55.949Z,39.13
2023-03-05T05:51:24.117Z,40.01
2023-03-05T05:53:52.157Z,40.55
2023-03-05T05:56:19.587Z,40.56
2023-03-05T05:58:49.350Z,39.90
2023-03-05T06:01:19.672Z,39.53
2023-03-05T06:03:48.827Z,39.98
2023-03-05T06:06:18.848Z,40.65
2023-03-05T06:08:46.690Z,39.26
2023-03-05T06:11:14.418Z,40.19
2023-03-05T06:13:42.040Z,40.94
2023-03-05T06:16:15.717Z,40.40
2023-03-05T06:18:42.975Z,40.67
2023-03-05T06:21:14.097Z,41.00
2023-03-05T06:23:42.031Z,40.85
2023-03-05T06:26:10.735Z,40.97
2023-03-05T06:28:37.871Z,40.88
2023-03-05T06:31:07.595Z,41.46
2023-03-05T06:33:35.529Z,41.50
2023-03-05T06:36:04.854Z,42.65
2023-03-05T06:38:34.174Z,42.98
2023-03-05T06:41:02.495Z,41.98
2023-03-05T06:43:29.688Z,42.76
2023-03-05T06:46:02.753Z,42.41
2023-03-05T06:48:30.129Z,42.34
2023-03-05T06:50:57.694Z,42.51
2023-03-05T06:53:25.453Z,42.68
2023-03-05T06:55:54.932Z,42.95
2023-03-05T06:58:23.078Z,43.25
2023-03-05T07:00:50.274Z,42.52
2023-03-05T07:03:17.374Z,42.44
2023-03-05T07:05:44.755Z,42.55
2023-03-05T07:08:11.923Z,41.56
2023-03-05T07:10:40.794Z,41.78
2023-03-05T07:13:10.516Z,43.14
2023-03-05T07:15:40.579Z,41.94
2023-03-05T07:18:08.274Z,42.35
2023-03-05T07:20:36.580Z,42.04
2023-03-05T07:23:04.552Z,41.94
2023-03-05T07:25:32.574Z,42.18
2023-03-05T07:27:59.613Z,41.59
2023-03-05T07:30:28.212Z,41.00
2023-03-05T07:32:55.436Z,40.93
2023-03-05T07:35:22.725Z,41.23
2023-03-05T07:37:49.973Z,41.46
2023-03-05T07:40:18.232Z,42.57
2023-03-05T07:42:45.326Z,40.55
2023-03-05T07:45:12.586Z,40.52
2023-03-05T07:47:41.112Z,40.12
2023-03-05T07:50:09.878Z,40.02
2023-03-05T07:52:37.086Z,40.25
2023-03-05T07:55:05.287Z,41.16
2023-03-05T07:57:32.495Z,39.35
2023-03-05T07:59:59.627Z,40.70
2023-03-05T08:02:26.800Z,41.16
2023-03-05T08:04:55.412Z,40.27
2023-03-05T08:07:22.654Z,40.09
2023-03-05T08:09:49.811Z,40.39
2023-03-05T08:12:16.929Z,38.59
2023-03-05T08:14:44.128Z,39.34
2023-03-05T08:17:11.290Z,39.61
2023-03-05T08:19:38.471Z,38.52
2023-03-05T08:22:07.049Z,38.95
2023-03-05T08:24:34.246Z,38.95
2023-03-05T08:27:01.443Z,38.41
2023-03-05T08:29:28.527Z,38.23
2023-03-05T08:31:55.726Z,39.24
2023-03-05T08:34:22.947Z,39.01
2023-03-05T08:36:50.188Z,39.92
2023-03-05T08:39:19.146Z,38.52
2023-03-05T08:41:46.252Z,38.51
2023-03-05T08:44:13.733Z,39.30
2023-03-05T08:46:41.766Z,38.52
2023-03-05T08:49:10.092Z,38.28
2023-03-05T08:51:37.246Z,39.85
2023-03-05T08:54:04.526Z,37.70
2023-03-05T08:56:33.908Z,39.27
2023-03-05T08:59:01.372Z,27.95
2023-03-05T09:01:28.695Z,27.47
2023-03-05T09:03:55.972Z,27.41
2023-03-05T09:06:23.276Z,29.55
2023-03-05T09:08:50.470Z,29.62
2023-03-05T09:11:18.319Z,30.07
2023-03-05T09:13:46.970Z,34.47
2023-03-05T09:16:17.253Z,36.04
2023-03-05T09:18:45.239Z,31.25
2023-03-05T09:21:16.016Z,32.96
2023-03-05T09:23:44.508Z,36.43
2023-03-05T09:26:13.551Z,37.11
2023-03-05T09:28:41.535Z,36.85
2023-03-05T09:31:11.496Z,38.50
2023-03-05T09:33:40.016Z,38.23
2023-03-05T09:36:22.366Z,39.86
2023-03-05T09:38:50.324Z,37.17
2023-03-05T09:41:29.287Z,38.89
2023-03-05T09:44:11.267Z,40.34
2023-03-05T09:46:52.390Z,40.78
2023-03-05T09:49:32.477Z,41.39
2023-03-05T09:52:07.733Z,41.41
2023-03-05T09:54:42.127Z,40.74
2023-03-05T09:57:17.828Z,39.25
2023-03-05T09:59:51.005Z,39.88
2023-03-05T10:02:26.415Z,41.41
2023-03-05T10:05:00.222Z,39.39
2023-03-05T10:07:32.240Z,39.30
2023-03-05T10:10:02.309Z,40.45
2023-03-05T10:12:40.359Z,40.71
2023-03-05T10:15:12.984Z,40.61
2023-03-05T10:18:07.703Z,40.23
2023-03-05T10:20:57.647Z,40.35
2023-03-05T10:24:01.465Z,40.59
2023-03-05T10:26:52.632Z,40.90
2023-03-05T10:29:40.147Z,38.61
2023-03-05T10:32:22.620Z,38.58
2023-03-05T10:35:14.364Z,40.92
2023-03-05T10:38:21.718Z,41.49
2023-03-05T10:40:54.646Z,39.05
2023-03-05T10:43:34.560Z,39.06
2023-03-05T10:46:04.469Z,39.14
2023-03-05T10:48:41.265Z,37.40
2023-03-05T10:51:17.394Z,40.53
2023-03-05T10:53:54.918Z,39.94
2023-03-05T10:56:25.606Z,38.70
2023-03-05T10:58:53.871Z,40.61
2023-03-05T11:01:25.291Z,36.34
2023-03-05T11:03:56.983Z,37.87
2023-03-05T11:06:33.765Z,38.77
2023-03-05T11:09:19.589Z,39.55
2023-03-05T11:12:05.040Z,39.49
2023-03-05T11:14:33.387Z,39.06
2023-03-05T11:17:01.581Z,39.60
2023-03-05T11:19:31.051Z,40.08
2023-03-05T11:22:16.389Z,40.30
2023-03-05T11:24:44.160Z,40.99
2023-03-05T11:27:31.660Z,41.10
2023-03-05T11:29:59.520Z,40.73
2023-03-05T11:32:28.502Z,41.23
2023-03-05T11:34:56.641Z,40.63
2023-03-05T11:37:29.040Z,40.62
2023-03-05T11:40:18.400Z,39.71
2023-03-05T11:42:50.081Z,40.45
2023-03-05T11:45:19.482Z,39.81
2023-03-05T11:47:50.550Z,39.23
2023-03-05T11:50:23.664Z,40.77
2023-03-05T11:52:56.180Z,40.26
2023-03-05T11:55:30.830Z,39.71
2023-03-05T11:58:17.685Z,40.00
2023-03-05T12:00:47.299Z,39.24
2023-03-05T12:03:18.790Z,39.64
2023-03-05T12:05:51.353Z,39.88
2023-03-05T12:08:27.746Z,40.06
2023-03-05T12:10:56.116Z,38.04
2023-03-05T12:13:29.427Z,39.18
2023-03-05T12:16:09.874Z,39.52
2023-03-05T12:18:48.565Z,39.99
2023-03-05T12:21:26.788Z,40.41
2023-03-05T12:23:57.840Z,40.47
2023-03-05T12:27:06.593Z,39.33
2023-03-05T12:29:44.598Z,37.61
2023-03-05T12:32:57.458Z,38.69
2023-03-05T12:35:28.255Z,38.69
2023-03-05T12:38:28.193Z,37.17
2023-03-05T12:41:27.460Z,37.49
2023-03-05T12:44:17.234Z,38.89
2023-03-05T12:46:45.939Z,40.49
2023-03-05T12:49:29.296Z,40.32
2023-03-05T12:51:58.335Z,40.51
2023-03-05T12:54:31.759Z,37.74
2023-03-05T12:57:01.597Z,36.95
2023-03-05T12:59:42.489Z,36.27
2023-03-05T13:02:26.932Z,39.00
2023-03-05T13:05:00.340Z,33.66
2023-03-05T13:07:27.461Z,35.50
2023-03-05T13:09:56.963Z,36.53
2023-03-05T13:12:26.284Z,35.94
2023-03-05T13:15:03.112Z,37.80
2023-03-05T13:17:35.053Z,38.52
2023-03-05T13:20:23.833Z,36.05
2023-03-05T13:23:13.333Z,36.42
2023-03-05T13:25:40.551Z,38.79
2023-03-05T13:28:13.030Z,41.02
2023-03-05T13:30:46.051Z,40.37
2023-03-05T13:33:19.355Z,41.28
2023-03-05T13:35:47.300Z,40.59
2023-03-05T13:38:26.691Z,40.46
2023-03-05T13:41:21.648Z,41.23
2023-03-05T13:43:51.151Z,41.66
2023-03-05T13:46:28.289Z,40.52
2023-03-05T13:48:55.627Z,41.68
2023-03-05T13:51:22.869Z,41.63
2023-03-05T13:53:51.332Z,41.06
2023-03-05T13:56:20.789Z,42.53
2023-03-05T13:58:50.947Z,41.92
2023-03-05T14:01:32.112Z,41.14
2023-03-05T14:04:07.187Z,40.02
2023-03-05T14:06:42.614Z,41.89
2023-03-05T14:09:21.210Z,41.78
2023-03-05T14:12:01.804Z,43.12
2023-03-05T14:14:31.102Z,41.47
2023-03-05T14:17:30.877Z,41.19
2023-03-05T14:20:09.120Z,42.91
2023-03-05T14:22:39.022Z,42.58
2023-03-05T14:25:32.932Z,42.23
2023-03-05T14:28:01.769Z,37.51
2023-03-05T14:30:29.394Z,42.06
2023-03-05T14:33:00.724Z,40.62
2023-03-05T14:35:30.270Z,41.03
2023-03-05T14:37:59.805Z,41.48
2023-03-05T14:40:30.141Z,41.38
2023-03-05T14:42:58.626Z,41.79
2023-03-05T14:45:28.278Z,41.72
2023-03-05T14:48:00.280Z,42.78
2023-03-05T14:50:29.934Z,41.51
2023-03-05T14:53:00.416Z,41.25
2023-03-05T14:55:30.040Z,41.17
2023-03-05T14:58:02.121Z,41.55
2023-03-05T15:00:29.494Z,41.18
2023-03-05T15:02:58.454Z,42.22
2023-03-05T15:05:25.873Z,39.95
2023-03-05T15:07:53.515Z,40.99
2023-03-05T15:10:24.175Z,40.97
2023-03-05T15:12:52.712Z,41.99
2023-03-05T15:15:21.737Z,42.26
2023-03-05T15:17:51.034Z,41.37
2023-03-05T15:20:21.950Z,41.73
2023-03-05T15:22:49.173Z,41.70
2023-03-05T15:25:17.276Z,41.47
2023-03-05T15:27:45.329Z,42.28
2023-03-05T15:30:22.874Z,41.33
2023-03-05T15:32:50.250Z,41.93
2023-03-05T15:35:17.756Z,41.00
2023-03-05T15:37:46.665Z,41.99
2023-03-05T15:40:14.563Z,40.94
2023-03-05T15:42:41.986Z,41.87
2023-03-05T15:45:09.962Z,41.98
2023-03-05T15:47:37.411Z,41.82
2023-03-05T15:50:05.326Z,41.80
2023-03-05T15:52:32.673Z,41.19
2023-03-05T15:55:02.662Z,39.47
2023-03-05T15:57:29.837Z,41.95
2023-03-05T15:59:56.955Z,42.39
2023-03-05T16:02:24.100Z,41.36
2023-03-05T16:04:51.232Z,41.81
2023-03-05T16:07:19.322Z,41.97
2023-03-05T16:09:51.355Z,41.77
2023-03-05T16:12:26.278Z,41.70
2023-03-05T16:14:53.521Z,41.34
2023-03-05T16:17:23.977Z,42.47
2023-03-05T16:19:55.940Z,41.43
2023-03-05T16:22:23.240Z,41.49
2023-03-05T16:24:50.417Z,41.34
2023-03-05T16:27:19.041Z,41.49
2023-03-05T16:29:46.240Z,42.29
2023-03-05T16:32:13.442Z,41.64
2023-03-05T16:34:40.571Z,42.74
2023-03-05T16:37:07.717Z,86.38
2023-03-05T16:39:34.873Z,78.36
2023-03-05T16:42:02.127Z,47.69
2023-03-05T16:44:30.849Z,45.53
2023-03-05T16:46:58.119Z,42.60
2023-03-05T16:49:25.478Z,41.43
2023-03-05T16:51:52.596Z,41.62
2023-03-05T16:54:19.745Z,42.42
2023-03-05T16:56:46.856Z,42.89
2023-03-05T16:59:14.203Z,43.03
2023-03-05T17:01:42.920Z,42.87
2023-03-05T17:04:10.305Z,42.70
2023-03-05T17:06:37.917Z,43.82
2023-03-05T17:09:05.072Z,44.27
2023-03-05T17:11:32.372Z,46.45
2023-03-05T17:13:59.499Z,44.62
2023-03-05T17:16:26.691Z,45.08
2023-03-05T17:18:55.458Z,44.02
2023-03-05T17:21:22.798Z,44.75
2023-03-05T17:23:50.074Z,43.87
2023-03-05T17:26:19.259Z,44.24
2023-03-05T17:28:46.595Z,45.69
2023-03-05T17:31:14.781Z,46.18
2023-03-05T17:33:42.443Z,45.83
2023-03-05T17:36:16.340Z,53.56
2023-03-05T17:38:44.261Z,46.80
2023-03-05T17:41:12.336Z,46.94
2023-03-05T17:43:40.169Z,47.21
2023-03-05T17:46:07.928Z,46.18
2023-03-05T17:48:35.454Z,45.36
2023-03-05T17:51:02.634Z,44.49
2023-03-05T17:53:31.314Z,44.10
2023-03-05T17:55:58.537Z,46.71
2023-03-05T17:58:25.676Z,56.92
2023-03-05T18:00:52.996Z,67.59
2023-03-05T18:03:20.134Z,85.37
2023-03-05T18:05:47.357Z,93.88
2023-03-05T18:08:14.639Z,63.55
2023-03-05T18:10:43.275Z,56.75
2023-03-05T18:13:10.438Z,53.50
2023-03-05T18:15:37.982Z,52.16
2023-03-05T18:18:05.317Z,49.92
2023-03-05T18:20:35.676Z,49.54
2023-03-05T18:23:05.215Z,48.44
2023-03-05T18:25:32.844Z,48.13
2023-03-05T18:28:02.999Z,48.90
2023-03-05T18:30:30.888Z,47.61
2023-03-05T18:32:58.256Z,47.80
2023-03-05T18:35:26.011Z,47.85
2023-03-05T18:37:53.214Z,48.24
2023-03-05T18:40:22.754Z,47.93
2023-03-05T18:42:50.340Z,46.77
2023-03-05T18:45:21.794Z,46.86
2023-03-05T18:47:49.592Z,44.02
2023-03-05T18:50:18.073Z,45.01
2023-03-05T18:52:46.051Z,45.56
2023-03-05T18:55:16.159Z,45.21
2023-03-05T18:57:43.291Z,42.26
2023-03-05T19:00:14.352Z,42.31
2023-03-05T19:02:43.014Z,41.61
2023-03-05T19:05:12.118Z,40.76
2023-03-05T19:07:39.531Z,44.06
2023-03-05T19:10:10.395Z,49.57
2023-03-05T19:12:39.460Z,41.79
2023-03-05T19:15:07.714Z,43.38
2023-03-05T19:17:34.898Z,48.26
2023-03-05T19:20:04.615Z,55.81
2023-03-05T19:22:32.362Z,54.71
2023-03-05T19:24:59.719Z,49.68
2023-03-05T19:27:27.076Z,49.73
2023-03-05T19:29:54.399Z,48.31
2023-03-05T19:32:21.845Z,47.34
2023-03-05T19:34:49.716Z,45.73
2023-03-05T19:37:18.376Z,47.66
2023-03-05T19:39:45.511Z,48.48
2023-03-05T19:42:12.796Z,46.85
2023-03-05T19:44:39.953Z,43.34
2023-03-05T19:47:07.233Z,44.31
2023-03-05T19:49:34.391Z,43.59
2023-03-05T19:52:02.072Z,43.54
2023-03-05T19:54:30.870Z,43.23
2023-03-05T19:56:58.090Z,42.65
2023-03-05T19:59:26.130Z,43.38
2023-03-05T20:01:54.355Z,43.72
2023-03-05T20:04:23.049Z,42.40
2023-03-05T20:06:51.372Z,42.71
2023-03-05T20:09:19.165Z,42.60
2023-03-05T20:11:47.909Z,45.76
2023-03-05T20:14:15.300Z,44.18
2023-03-05T20:16:43.088Z,44.25
2023-03-05T20:19:16.717Z,44.14
2023-03-05T20:21:45.232Z,44.41
2023-03-05T20:24:14.502Z,44.15
2023-03-05T20:26:44.354Z,45.03
2023-03-05T20:29:17.305Z,43.62
2023-03-05T20:31:45.782Z,44.48
2023-03-05T20:34:16.138Z,44.21
2023-03-05T20:36:43.672Z,43.00
2023-03-05T20:39:11.137Z,44.70
2023-03-05T20:41:40.006Z,44.28
2023-03-05T20:44:08.717Z,42.78
2023-03-05T20:46:40.169Z,43.51
2023-03-05T20:49:07.538Z,44.34
2023-03-05T20:51:37.221Z,23.77
2023-03-05T20:54:07.434Z,33.13
2023-03-05T20:56:36.272Z,35.38
2023-03-05T20:59:06.057Z,35.98
2023-03-05T21:01:35.214Z,41.41
2023-03-05T21:04:04.648Z,41.45
2023-03-05T21:06:33.177Z,42.74
2023-03-05T21:09:01.191Z,42.26
2023-03-05T21:11:28.742Z,42.80
2023-03-05T21:13:56.100Z,42.02
2023-03-05T21:16:27.037Z,42.94
2023-03-05T21:18:55.142Z,42.69
2023-03-05T21:21:24.061Z,42.02
2023-03-05T21:23:51.339Z,41.85
2023-03-05T21:26:20.848Z,42.20
2023-03-05T21:28:48.440Z,43.83
2023-03-05T21:31:19.076Z,43.17
2023-03-05T21:33:50.378Z,43.91
2023-03-05T21:36:18.524Z,41.68
2023-03-05T21:38:48.199Z,41.16
2023-03-05T21:41:16.017Z,41.20
2023-03-05T21:43:43.325Z,41.28
2023-03-05T21:46:10.958Z,40.75
2023-03-05T21:48:38.456Z,40.87
2023-03-05T21:51:09.140Z,40.35
2023-03-05T21:53:36.637Z,41.10
2023-03-05T21:56:05.734Z,41.34
2023-03-05T21:58:34.752Z,40.47
2023-03-05T22:01:02.975Z,42.90
2023-03-05T22:03:30.801Z,42.99
2023-03-05T22:05:58.324Z,41.81
2023-03-05T22:08:25.590Z,42.33
2023-03-05T22:10:53.190Z,41.13
2023-03-05T22:13:21.928Z,41.84
2023-03-05T22:15:52.053Z,42.33
2023-03-05T22:18:22.150Z,42.42
2023-03-05T22:20:49.471Z,42.39
2023-03-05T22:23:18.090Z,42.30
2023-03-05T22:25:45.848Z,42.67
2023-03-05T22:28:13.928Z,42.78
2023-03-05T22:30:46.342Z,42.32
2023-03-05T22:33:14.029Z,42.01
2023-03-05T22:35:42.515Z,42.38
2023-03-05T22:38:11.373Z,41.99
2023-03-05T22:40:43.506Z,42.26
2023-03-05T22:43:11.692Z,40.76
2023-03-05T22:45:39.108Z,44.09
2023-03-05T22:48:08.386Z,44.13
2023-03-05T22:50:35.944Z,44.50
2023-03-05T22:53:03.673Z,42.07
2023-03-05T22:55:30.966Z,43.46
2023-03-05T22:57:58.104Z,43.13
2023-03-05T23:00:25.747Z,42.94
2023-03-05T23:02:53.993Z,44.04
2023-03-05T23:05:22.830Z,43.32
2023-03-05T23:07:50.076Z,43.83
2023-03-05T23:10:20.122Z,43.13
2023-03-05T23:12:49.342Z,42.57
2023-03-05T23:15:18.835Z,43.06
2023-03-05T23:17:46.210Z,42.34
2023-03-05T23:20:15.579Z,42.04
2023-03-05T23:22:45.383Z,41.70
2023-03-05T23:25:15.438Z,42.11
2023-03-05T23:27:43.130Z,41.56
2023-03-05T23:30:12.942Z,41.72
2023-03-05T23:32:40.159Z,41.25
2023-03-05T23:35:10.021Z,40.64
2023-03-05T23:37:37.178Z,40.96
2023-03-05T23:40:09.736Z,41.63
2023-03-05T23:42:37.394Z,41.18
2023-03-05T23:45:06.115Z,41.28
2023-03-05T23:47:35.711Z,42.54
2023-03-05T23:50:03.912Z,41.52
2023-03-05T23:52:31.130Z,41.25
2023-03-05T23:54:58.932Z,41.36
2023-03-05T23:57:27.633Z,40.37
2023-03-05T23:59:54.718Z,40.31
